Williamsburg, Michigan
Current Conditions -  °F | °C
As of 5:53 PM on Monday 24 Nov 2014 (Local Time) from KTVC Reporting Station
Light Rain Light Rain  
Wind Chill: 29°   Ceiling: 1900
Heat Index: 36°   Visibility: 4mi
Dew Point: 33°   Wind: 9mph
Humidity: 89%   Direction: 330°NNW
Pressure: 29.22"   Gusts: NA
Location:  44.77°N, 85.4°W
Report Text: KTVC 242253Z 33008KT 4SM -RA BR SCT007 SCT012 OVC019 02/01 A2922 RMK AO2 SLP898 P0005 I1000 T00220006
Loading
Personal Weather Stations






























Interactive Weather Map New forecast layout! Learn more

10-Day Weather Forecast

Advertisements
Track Severe Weather on mobile